»·PEaware :: N763BR KLAX-KIAH

N763BR :: KLAX-KIAH

FLIGHT INFORMATION

Flight Status: Arrived
Operator: Privately registered:
United States
More flights under this callsign
Pilot: John H. (610)
Aircraft: Unknown
(B788)
More flights by this aircraft type
Origin: KLAX Los Angeles Intl
United States
Destination: KIAH G Bush Intercontinental/Houst
United States
More flights between these airports :: More routes between these airports
Route: +LAXX6 TRM J169 TFD J50 SSO J4 INK J15
File this flight plan on PilotEdge
Remarks: PREFERRED ALT AT OR BELOW FL230
Altitude:
(Current/Filed)
37,000ft
Speed:
(Current/Filed)
490kts
Departed: 03-Jan-13 08:16 PM
Arrived: 03-Jan-13 10:54 PM
Distance/Time
Traveled:
1196nm/2:38
Distance/Time
To Go:
Arrived

Flight Plot

Page will automatically refresh every two minutes.

Flight plan parsing failed; only flown route is shown


Map Options




Map Legend


Flown Route
Filed Route
Departure Airport
Arrival Airport
Navaid (VOR, NDB)
Fix

Horizontal Profiles

Position Reports

Time Latitude Longitude Heading Altitude Ground
Speed
03-Jan-13 20:03 33.942098 -118.387904 302 137ft 0kts
03-Jan-13 20:04 33.942098 -118.387904 302 137ft 0kts
03-Jan-13 20:05 33.942098 -118.387904 302 137ft 0kts
03-Jan-13 20:06 33.942098 -118.387904 302 137ft 0kts
03-Jan-13 20:07 33.942098 -118.387904 302 137ft 0kts
03-Jan-13 20:08 33.942098 -118.387904 302 137ft 0kts
03-Jan-13 20:09 33.942098 -118.387904 302 137ft 0kts
03-Jan-13 20:10 33.941884 -118.387326 279 137ft 4kts
03-Jan-13 20:11 33.941697 -118.388522 264 137ft 25kts
03-Jan-13 20:12 33.939963 -118.388806 83 137ft 19kts
03-Jan-13 20:14 33.940691 -118.380935 95 137ft 0kts
03-Jan-13 20:15 33.939812 -118.380787 254 137ft 8kts
03-Jan-13 20:16 33.938587 -118.392758 261 138ft 150kts
03-Jan-13 20:17 33.931467 -118.459777 251 1201ft 246kts
03-Jan-13 20:18 33.875999 -118.500880 193 4783ft 261kts
03-Jan-13 20:19 33.807391 -118.518400 193 8498ft 269kts
03-Jan-13 20:20 33.729886 -118.537566 193 11867ft 327kts
03-Jan-13 20:21 33.624707 -118.558318 174 13031ft 474kts
03-Jan-13 20:22 33.527061 -118.439709 104 14182ft 583kts
03-Jan-13 20:23 33.511272 -118.256444 80 15719ft 598kts
03-Jan-13 20:24 33.526051 -118.061928 86 17368ft 594kts
03-Jan-13 20:25 33.536271 -117.893273 85 18819ft 591kts
03-Jan-13 20:26 33.546197 -117.727386 85 20266ft 584kts
03-Jan-13 20:27 33.556994 -117.541993 85 21901ft 575kts
03-Jan-13 20:28 33.567006 -117.362122 85 23499ft 568kts
03-Jan-13 20:29 33.576924 -117.182368 85 25115ft 562kts
03-Jan-13 20:30 33.586614 -117.001812 85 26752ft 557kts
03-Jan-13 20:31 33.595459 -116.834165 86 28268ft 559kts
03-Jan-13 20:32 33.604462 -116.655793 87 29908ft 549kts
03-Jan-13 20:33 33.612984 -116.481783 86 31509ft 531kts
03-Jan-13 20:34 33.620967 -116.312452 85 33117ft 517kts
03-Jan-13 20:35 33.628460 -116.144672 88 34749ft 507kts
03-Jan-13 20:36 33.624891 -115.978923 89 36405ft 497kts
03-Jan-13 20:37 33.621834 -115.814273 91 37066ft 503kts
03-Jan-13 20:38 33.618270 -115.644667 92 37065ft 517kts
03-Jan-13 20:39 33.614437 -115.470970 92 37065ft 526kts
03-Jan-13 20:40 33.610203 -115.296740 92 37066ft 531kts
03-Jan-13 20:41 33.605862 -115.121142 92 36981ft 517kts
03-Jan-13 20:42 33.601724 -114.962899 92 36996ft 516kts
03-Jan-13 20:43 33.597140 -114.795689 92 36995ft 517kts
03-Jan-13 20:44 33.584160 -114.625412 96 36995ft 516kts
03-Jan-13 20:45 33.569464 -114.461316 96 36995ft 516kts
03-Jan-13 20:46 33.555418 -114.308564 97 36994ft 517kts
03-Jan-13 20:47 33.539966 -114.141448 97 37007ft 536kts
03-Jan-13 20:48 33.524403 -113.975464 95 37009ft 542kts
03-Jan-13 20:49 33.509132 -113.814393 94 37011ft 541kts
03-Jan-13 20:50 33.492957 -113.646247 94 37012ft 539kts
03-Jan-13 20:51 33.476754 -113.480264 94 37013ft 537kts
03-Jan-13 20:52 33.454009 -113.319382 114 37005ft 541kts
03-Jan-13 20:53 33.389114 -113.159673 113 37011ft 542kts
03-Jan-13 20:54 33.327586 -113.004180 113 37006ft 541kts
03-Jan-13 20:55 33.263899 -112.843966 113 37007ft 541kts
03-Jan-13 20:56 33.199722 -112.683276 113 37007ft 541kts
03-Jan-13 20:57 33.135288 -112.522782 112 36977ft 538kts
03-Jan-13 20:58 33.071889 -112.365921 112 36976ft 535kts
03-Jan-13 20:59 33.008019 -112.208168 112 36976ft 534kts
03-Jan-13 21:00 32.943459 -112.048489 118 36966ft 541kts
03-Jan-13 21:01 32.882238 -111.897081 110 36936ft 491kts
03-Jan-13 21:02 32.848990 -111.742543 105 36952ft 483kts
03-Jan-13 21:03 32.815253 -111.591094 103 36949ft 484kts
03-Jan-13 21:04 32.781871 -111.442145 102 36949ft 487kts
03-Jan-13 21:05 32.747948 -111.292496 102 36956ft 489kts
03-Jan-13 21:06 32.713503 -111.140767 102 36955ft 491kts
03-Jan-13 21:07 32.679771 -110.993062 102 36959ft 505kts
03-Jan-13 21:08 32.645062 -110.842035 102 36955ft 513kts
03-Jan-13 21:09 32.611285 -110.695920 102 36953ft 516kts
03-Jan-13 21:10 32.574093 -110.535726 103 36941ft 515kts
03-Jan-13 21:11 32.536300 -110.375077 105 36945ft 511kts
03-Jan-13 21:12 32.500035 -110.221158 105 36937ft 501kts
03-Jan-13 21:13 32.464586 -110.071604 106 36941ft 467kts
03-Jan-13 21:14 32.429336 -109.923418 107 37067ft 475kts
03-Jan-13 21:15 32.393263 -109.773054 108 37066ft 481kts
03-Jan-13 21:16 32.357084 -109.623071 108 37074ft 485kts
03-Jan-13 21:17 32.320856 -109.473658 109 37075ft 488kts
03-Jan-13 21:18 32.284575 -109.325497 109 37079ft 489kts
03-Jan-13 21:19 32.260189 -109.167246 100 37082ft 496kts
03-Jan-13 21:20 32.244909 -109.006336 100 37077ft 496kts
03-Jan-13 21:21 32.229375 -108.845576 100 37076ft 497kts
03-Jan-13 21:22 32.213674 -108.685238 100 37076ft 497kts
03-Jan-13 21:23 32.198094 -108.528192 100 37075ft 497kts
03-Jan-13 21:24 32.182635 -108.376068 100 37088ft 493kts
03-Jan-13 21:25 32.166660 -108.219018 100 37086ft 486kts
03-Jan-13 21:26 32.150583 -108.062803 99 37085ft 484kts
03-Jan-13 21:27 32.134211 -107.905687 99 37083ft 482kts
03-Jan-13 21:28 32.117732 -107.749475 99 37082ft 481kts
03-Jan-13 21:29 32.101134 -107.594000 99 37080ft 481kts
03-Jan-13 21:30 32.084415 -107.439233 99 37079ft 481kts
03-Jan-13 21:31 32.067428 -107.285215 99 37085ft 480kts
03-Jan-13 21:32 32.050482 -107.131952 99 37090ft 488kts
03-Jan-13 21:33 32.032650 -106.972226 100 37096ft 496kts
03-Jan-13 21:34 32.013724 -106.806638 98 37135ft 526kts
03-Jan-13 21:35 31.993960 -106.633085 96 37008ft 544kts
03-Jan-13 21:36 31.973808 -106.458690 96 36999ft 536kts
03-Jan-13 21:37 31.954076 -106.291738 97 36999ft 533kts
03-Jan-13 21:38 31.949451 -106.118671 90 36999ft 532kts
03-Jan-13 21:39 31.946551 -105.945704 90 36999ft 532kts
03-Jan-13 21:40 31.943420 -105.771826 90 36999ft 532kts
03-Jan-13 21:41 31.940215 -105.609448 91 36990ft 525kts
03-Jan-13 21:42 31.940215 -105.609448 91 36990ft 525kts
03-Jan-13 21:43 31.933322 -105.291213 91 36999ft 495kts
03-Jan-13 21:44 31.929941 -105.131107 91 37014ft 487kts
03-Jan-13 21:45 31.926417 -104.973849 91 37045ft 480kts
03-Jan-13 21:46 31.922802 -104.817364 92 37091ft 480kts
03-Jan-13 21:47 31.919015 -104.661262 92 37103ft 509kts
03-Jan-13 21:48 31.914589 -104.492591 92 37090ft 521kts
03-Jan-13 21:49 31.910627 -104.353078 92 37088ft 518kts
03-Jan-13 21:50 31.905837 -104.184717 92 37088ft 516kts
03-Jan-13 21:51 31.899939 -103.987467 91 37087ft 516kts
03-Jan-13 21:52 31.895553 -103.847054 91 37086ft 516kts
03-Jan-13 21:53 31.889153 -103.650539 91 37086ft 516kts
03-Jan-13 21:54 31.884412 -103.510656 91 37085ft 515kts
03-Jan-13 21:55 31.878398 -103.343559 92 37088ft 516kts
03-Jan-13 21:56 31.852339 -103.180521 114 37111ft 516kts
03-Jan-13 21:57 31.797105 -103.025138 111 37087ft 517kts
03-Jan-13 21:58 31.778172 -102.972054 111 37087ft 517kts
03-Jan-13 22:10 31.061210 -101.021770 113 38400ft 533kts
03-Jan-13 22:11 30.998152 -100.855311 113 38562ft 532kts
03-Jan-13 22:12 30.938245 -100.697889 113 38269ft 543kts
03-Jan-13 22:13 30.877630 -100.539333 113 34392ft 523kts
03-Jan-13 22:14 30.820603 -100.391069 114 36064ft 519kts
03-Jan-13 22:15 30.761122 -100.236778 115 36060ft 519kts
03-Jan-13 22:16 30.703042 -100.087090 114 36059ft 506kts
03-Jan-13 22:17 30.646542 -99.941716 112 36918ft 502kts
03-Jan-13 22:18 30.588848 -99.792009 109 36901ft 519kts
03-Jan-13 22:19 30.535411 -99.637721 109 35504ft 512kts
03-Jan-13 22:20 30.482983 -99.488086 109 33887ft 498kts
03-Jan-13 22:21 30.435589 -99.353836 109 32419ft 488kts
03-Jan-13 22:22 30.389906 -99.224499 109 30985ft 478kts
03-Jan-13 22:23 30.343755 -99.094327 109 29496ft 468kts
03-Jan-13 22:24 30.295350 -98.958310 109 27889ft 456kts
03-Jan-13 22:25 30.247709 -98.824958 109 26273ft 446kts
03-Jan-13 22:26 30.201178 -98.695195 109 24665ft 436kts
03-Jan-13 22:27 30.155665 -98.568722 109 23062ft 426kts
03-Jan-13 22:29 30.071122 -98.335440 110 20018ft 410kts
03-Jan-13 22:30 30.028253 -98.217459 110 18471ft 434kts
03-Jan-13 22:31 29.978171 -98.080313 110 17031ft 475kts
03-Jan-13 22:32 29.927176 -97.941098 110 16991ft 475kts
03-Jan-13 22:33 29.894417 -97.798060 73 16707ft 462kts
03-Jan-13 22:34 29.910761 -97.651907 83 15974ft 466kts
03-Jan-13 22:35 29.919485 -97.503319 83 14872ft 467kts
03-Jan-13 22:36 29.928019 -97.354834 83 13779ft 470kts
03-Jan-13 22:37 29.936653 -97.204127 84 12683ft 472kts
03-Jan-13 22:38 29.945109 -97.053534 84 11591ft 475kts
03-Jan-13 22:39 29.953811 -96.895484 84 10527ft 522kts
03-Jan-13 22:40 29.962659 -96.730315 84 9659ft 500kts
03-Jan-13 22:41 29.970878 -96.574108 84 8291ft 485kts
03-Jan-13 22:42 29.978167 -96.432647 84 6855ft 478kts
03-Jan-13 22:43 29.985657 -96.280899 85 5542ft 473kts
03-Jan-13 22:44 29.993019 -96.130390 86 4011ft 466kts
03-Jan-13 22:45 29.999947 -95.986055 86 3030ft 421kts
03-Jan-13 22:46 30.005738 -95.863572 87 3013ft 350kts
03-Jan-13 22:47 30.000374 -95.761792 118 3068ft 302kts
03-Jan-13 22:48 29.995153 -95.678073 71 3037ft 261kts
03-Jan-13 22:49 30.006040 -95.609465 87 3057ft 256kts
03-Jan-13 22:50 30.006978 -95.535533 88 3050ft 227kts
03-Jan-13 22:51 30.007114 -95.466676 88 1914ft 223kts
03-Jan-13 22:52 30.007119 -95.399489 88 877ft 191kts
03-Jan-13 22:53 30.007243 -95.346587 88 109ft 116kts
03-Jan-13 22:54 30.006392 -95.334361 118 109ft 39kts
03-Jan-13 22:55 29.999679 -95.325397 183 108ft 19kts
03-Jan-13 22:56 29.991972 -95.325309 174 109ft 21kts
03-Jan-13 22:57 29.989393 -95.332541 179 108ft 0kts

Navigation Log

Ident Type
Flight plan parsing failed, navigation log unavailable